Time;durP1;ratioP1;P1;durP2;ratioP2;P2;SDS_P1;SDS_P2;PMS_P1;PMS_P2;Temp;Humidity;BMP_temperature;BMP_pressure;BME280_temperature;BME280_humidity;BME280_pressure;Samples;Min_cycle;Max_cycle;Signal;HPM_P1;HPM_P2
2022/09/12 00:01:24;;;;;;;;;3.50;3.50;;;28.06;100411.52;;;;117027;1192;24710;-61
2022/09/12 00:03:55;;;;;;;;;4.00;4.00;;;28.05;100407.90;;;;117096;1192;25205;-61
2022/09/12 00:06:29;;;;;;;;;5.50;5.50;;;28.05;100410.50;;;;117132;1193;26052;-61
2022/09/12 00:09:00;;;;;;;;;4.00;4.00;;;28.06;100411.52;;;;117107;1192;25828;-61
2022/09/12 00:11:29;;;;;;;;;4.25;3.50;;;28.06;100408.39;;;;117026;1193;25535;-61
2022/09/12 00:14:00;;;;;;;;;7.50;4.50;;;28.06;100412.20;;;;117165;1193;25273;-61
2022/09/12 00:16:31;;;;;;;;;3.00;3.00;;;28.06;100408.34;;;;117036;1193;25382;-62
2022/09/12 00:19:00;;;;;;;;;5.00;5.00;;;28.06;100409.25;;;;117150;1193;25242;-61
2022/09/12 00:21:31;;;;;;;;;5.00;5.00;;;28.06;100412.39;;;;117123;1193;25569;-61
2022/09/12 00:23:59;;;;;;;;;4.00;4.00;;;28.05;100410.64;;;;117048;1193;25687;-61
2022/09/12 00:26:27;;;;;;;;;9.00;6.25;;;28.05;100408.75;;;;117033;1193;25658;-61
2022/09/12 00:28:56;;;;;;;;;7.00;4.00;;;28.04;100413.35;;;;117067;1193;25436;-61
2022/09/12 00:31:25;;;;;;;;;8.50;5.00;;;28.04;100419.11;;;;117079;1191;25509;-60
2022/09/12 00:33:56;;;;;;;;;4.33;4.33;;;28.03;100414.36;;;;117130;1191;25223;-60
2022/09/12 00:36:26;;;;;;;;;4.00;4.00;;;28.03;100411.25;;;;117122;1192;25299;-61
2022/09/12 00:38:54;;;;;;;;;8.00;5.00;;;28.03;100407.98;;;;117128;1192;25217;-61
2022/09/12 00:41:29;;;;;;;;;6.00;5.75;;;28.04;100405.61;;;;117134;1193;25337;-61
2022/09/12 00:44:11;;;;;;;;;8.75;7.00;;;28.02;100402.75;;;;117121;1191;24812;-61
2022/09/12 00:46:46;;;;;;;;;4.00;4.00;;;28.04;100400.50;;;;117125;1193;25576;-62
2022/09/12 00:49:23;;;;;;;;;5.50;4.25;;;28.04;100399.41;;;;117097;1192;24935;-61
2022/09/12 00:52:18;;;;;;;;;3.00;3.00;;;28.03;100398.02;;;;117110;1193;25336;-61
2022/09/12 00:54:52;;;;;;;;;5.00;4.00;;;28.08;100396.69;;;;117089;1191;25803;-61
2022/09/12 00:57:23;;;;;;;;;7.00;7.00;;;28.08;100394.16;;;;117173;1191;24802;-61
2022/09/12 01:00:14;;;;;;;;;4.00;4.00;;;28.08;100393.02;;;;117174;1190;25496;-61
2022/09/12 01:02:48;;;;;;;;;8.50;6.00;;;28.08;100396.89;;;;117380;1189;25565;-61
2022/09/12 01:05:16;;;;;;;;;4.67;4.67;;;28.09;100389.80;;;;117156;1192;25456;-60
2022/09/12 01:07:47;;;;;;;;;6.25;4.00;;;28.08;100390.90;;;;117107;1192;25368;-61
2022/09/12 01:10:16;;;;;;;;;5.00;5.00;;;28.08;100392.52;;;;117162;1191;24804;-61
2022/09/12 01:12:45;;;;;;;;;7.33;6.33;;;28.06;100398.33;;;;117191;1191;25069;-66
2022/09/12 01:15:14;;;;;;;;;4.00;4.00;;;28.06;100394.98;;;;117097;1192;25133;-63
2022/09/12 01:18:29;;;;;;;;;4.33;4.00;;;28.04;100399.55;;;;117168;1192;25022;-67
2022/09/12 01:21:15;;;;;;;;;5.75;3.75;;;28.07;100396.66;;;;116750;1196;25507;-71
2022/09/12 01:24:02;;;;;;;;;5.25;4.75;;;28.09;100395.80;;;;117074;1193;25439;-69
2022/09/12 01:26:45;;;;;;;;;4.50;4.50;;;28.06;100396.17;;;;116967;1192;24951;-63
2022/09/12 01:29:14;;;;;;;;;7.00;3.00;;;28.04;100394.60;;;;117145;1191;24829;-61
2022/09/12 01:32:03;;;;;;;;;5.00;5.00;;;28.06;100392.92;;;;117414;1191;25337;-62
2022/09/12 01:34:46;;;;;;;;;6.00;4.25;;;28.07;100389.90;;;;117159;1192;24921;-63
2022/09/12 01:37:27;;;;;;;;;6.00;5.33;;;28.07;100395.65;;;;117143;1192;26263;-62
2022/09/12 01:39:58;;;;;;;;;6.50;5.00;;;28.08;100398.41;;;;117377;1191;24808;-63
2022/09/12 01:42:34;;;;;;;;;5.50;4.50;;;28.05;100401.59;;;;117148;1192;25444;-63
2022/09/12 01:45:11;;;;;;;;;6.33;4.67;;;28.03;100407.80;;;;117189;1191;24983;-62
2022/09/12 01:48:19;;;;;;;;;6.00;5.67;;;28.04;100409.71;;;;117204;1192;25400;-61
2022/09/12 01:51:04;;;;;;;;;6.67;5.33;;;28.07;100405.44;;;;117050;1192;24781;-61
2022/09/12 01:53:41;;;;;;;;;4.67;3.33;;;28.09;100406.71;;;;117202;1192;25404;-61
2022/09/12 01:56:14;;;;;;;;;7.00;5.33;;;28.08;100406.18;;;;117337;1191;24977;-61
2022/09/12 01:58:51;;;;;;;;;8.00;4.50;;;28.06;100407.24;;;;117079;1193;24957;-61
2022/09/12 02:01:30;;;;;;;;;6.25;5.00;;;28.05;100408.91;;;;117046;1193;25479;-62
2022/09/12 02:04:10;;;;;;;;;5.00;5.00;;;28.07;100407.86;;;;117039;1193;24830;-62
2022/09/12 02:06:48;;;;;;;;;8.00;7.75;;;28.06;100404.52;;;;116900;1194;25002;-62
2022/09/12 02:09:24;;;;;;;;;3.00;3.00;;;28.04;100400.44;;;;117027;1193;25029;-62
2022/09/12 02:11:57;;;;;;;;;10.00;6.33;;;28.05;100396.55;;;;117086;1193;24918;-62
2022/09/12 02:14:29;;;;;;;;;5.00;5.00;;;28.03;100396.81;;;;117119;1192;25158;-61
2022/09/12 02:17:01;;;;;;;;;7.00;7.00;;;28.03;100396.17;;;;117044;1193;25406;-62
2022/09/12 02:19:35;;;;;;;;;9.00;7.00;;;28.03;100392.20;;;;117161;1191;25359;-62
2022/09/12 02:22:05;;;;;;;;;5.75;5.00;;;28.01;100389.73;;;;117062;1193;25004;-62
2022/09/12 02:24:39;;;;;;;;;4.67;4.00;;;28.02;100389.92;;;;117157;1193;24958;-61
2022/09/12 02:27:15;;;;;;;;;5.33;5.33;;;28.02;100387.61;;;;117088;1192;25667;-63
2022/09/12 02:29:44;;;;;;;;;9.00;7.00;;;28.01;100388.33;;;;117098;1192;25421;-62
2022/09/12 02:32:27;;;;;;;;;7.00;7.00;;;27.99;100387.66;;;;117062;1193;25348;-62
2022/09/12 02:35:22;;;;;;;;;7.00;5.50;;;27.98;100391.74;;;;117124;1193;26056;-63
2022/09/12 02:37:59;;;;;;;;;10.00;8.00;;;28.01;100392.61;;;;117053;1193;25380;-62
2022/09/12 02:40:28;;;;;;;;;5.50;4.50;;;28.05;100392.09;;;;117121;1192;24925;-63
2022/09/12 02:42:57;;;;;;;;;7.67;6.00;;;28.05;100394.85;;;;117088;1191;24861;-60
2022/09/12 02:45:26;;;;;;;;;6.00;6.00;;;28.03;100396.91;;;;117042;1193;25397;-62
2022/09/12 02:48:01;;;;;;;;;7.00;6.75;;;28.01;100397.23;;;;117081;1193;25429;-61
2022/09/12 02:50:30;;;;;;;;;11.75;8.25;;;28.03;100392.20;;;;116991;1193;25572;-62
2022/09/12 02:53:04;;;;;;;;;7.00;5.25;;;28.00;100392.04;;;;116966;1193;25148;-62
2022/09/12 02:55:34;;;;;;;;;6.75;3.75;;;27.99;100389.35;;;;117080;1192;25572;-62
2022/09/12 02:58:05;;;;;;;;;8.50;5.75;;;28.00;100390.58;;;;117148;1191;25210;-61
2022/09/12 03:00:38;;;;;;;;;6.75;6.75;;;27.99;100390.06;;;;117122;1191;25508;-62
2022/09/12 03:03:24;;;;;;;;;9.50;6.75;;;27.99;100390.18;;;;117177;1192;25251;-61
2022/09/12 03:06:12;;;;;;;;;8.00;6.33;;;28.01;100390.19;;;;117140;1191;25532;-62
2022/09/12 03:08:53;;;;;;;;;5.25;5.25;;;28.04;100383.20;;;;117172;1192;24791;-61
2022/09/12 03:11:36;;;;;;;;;8.33;6.33;;;28.03;100386.34;;;;117130;1192;25499;-61
2022/09/12 03:14:26;;;;;;;;;9.00;8.33;;;28.02;100394.16;;;;117316;1191;25441;-62
2022/09/12 03:17:10;;;;;;;;;7.25;6.50;;;27.99;100395.26;;;;117408;1191;25417;-61
2022/09/12 03:19:57;;;;;;;;;8.00;5.50;;;27.98;100395.29;;;;117145;1191;25447;-62
2022/09/12 03:22:29;;;;;;;;;6.75;6.25;;;27.99;100398.05;;;;117174;1191;25009;-63
2022/09/12 03:25:03;;;;;;;;;6.50;5.25;;;27.97;100396.89;;;;117379;1190;24969;-61
2022/09/12 03:27:50;;;;;;;;;9.00;5.00;;;27.96;100404.08;;;;117184;1191;25361;-61
2022/09/12 03:30:19;;;;;;;;;9.50;4.00;;;27.96;100406.83;;;;117190;1191;25674;-61
2022/09/12 03:32:50;;;;;;;;;6.00;4.25;;;27.96;100410.51;;;;117107;1189;24810;-62
2022/09/12 03:35:21;;;;;;;;;7.00;7.00;;;27.95;100413.48;;;;117201;1191;25051;-62
2022/09/12 03:37:51;;;;;;;;;5.67;4.00;;;27.95;100412.61;;;;117184;1191;24881;-61
2022/09/12 03:40:20;;;;;;;;;4.75;4.75;;;27.95;100410.69;;;;117179;1191;25051;-60
2022/09/12 03:42:48;;;;;;;;;6.00;5.00;;;27.95;100412.24;;;;117184;1191;24964;-61
2022/09/12 03:45:17;;;;;;;;;7.00;4.75;;;27.94;100409.02;;;;117175;1192;25380;-61
2022/09/12 03:47:45;;;;;;;;;8.00;6.33;;;27.93;100408.64;;;;117158;1193;25466;-61
2022/09/12 03:50:14;;;;;;;;;5.50;5.50;;;27.93;100410.39;;;;117073;1192;25684;-61
2022/09/12 03:52:42;;;;;;;;;5.75;5.75;;;27.92;100411.84;;;;117404;1190;25598;-61
2022/09/12 03:55:11;;;;;;;;;6.50;5.00;;;27.92;100410.95;;;;117095;1189;25090;-61
2022/09/12 03:57:39;;;;;;;;;4.33;4.33;;;27.92;100412.66;;;;117138;1191;25073;-62
2022/09/12 04:00:08;;;;;;;;;4.00;4.00;;;27.91;100412.45;;;;117115;1193;25538;-60
2022/09/12 04:02:37;;;;;;;;;6.50;5.75;;;27.92;100407.63;;;;117164;1193;25552;-61
2022/09/12 04:05:06;;;;;;;;;6.00;6.00;;;27.91;100401.17;;;;117082;1193;25049;-62
2022/09/12 04:07:34;;;;;;;;;2.50;2.50;;;27.91;100399.68;;;;117093;1192;25462;-62
2022/09/12 04:10:03;;;;;;;;;7.50;5.50;;;27.91;100402.96;;;;117047;1193;24953;-61
2022/09/12 04:12:31;;;;;;;;;5.33;4.33;;;27.91;100402.88;;;;117069;1193;25523;-62
2022/09/12 04:15:00;;;;;;;;;3.50;3.50;;;27.91;100404.03;;;;117014;1193;24701;-61
2022/09/12 04:17:28;;;;;;;;;4.75;4.50;;;27.90;100410.20;;;;117025;1193;24828;-61
2022/09/12 04:19:56;;;;;;;;;6.00;6.00;;;27.90;100413.61;;;;116997;1191;25186;-61
2022/09/12 04:22:25;;;;;;;;;6.25;6.25;;;27.89;100414.34;;;;117049;1192;24925;-61
2022/09/12 04:24:53;;;;;;;;;5.00;5.00;;;27.89;100415.23;;;;117071;1193;25087;-61
2022/09/12 04:27:22;;;;;;;;;6.00;6.00;;;27.91;100413.85;;;;117000;1193;25450;-61
2022/09/12 04:29:50;;;;;;;;;6.50;5.50;;;27.91;100420.54;;;;116917;1193;25151;-62
2022/09/12 04:32:19;;;;;;;;;6.25;5.50;;;27.92;100426.94;;;;117062;1193;25553;-62
2022/09/12 04:34:48;;;;;;;;;6.25;4.25;;;27.91;100430.63;;;;117125;1192;25375;-63
2022/09/12 04:37:16;;;;;;;;;7.75;4.00;;;27.91;100434.85;;;;117078;1192;24714;-63
2022/09/12 04:39:44;;;;;;;;;6.75;6.75;;;27.90;100439.41;;;;117036;1193;25586;-61
2022/09/12 04:42:13;;;;;;;;;5.33;5.33;;;27.89;100448.27;;;;117030;1193;25363;-61
2022/09/12 04:44:41;;;;;;;;;9.50;6.75;;;27.89;100453.48;;;;116959;1194;24933;-60
2022/09/12 04:47:09;;;;;;;;;8.00;6.67;;;27.89;100457.48;;;;117011;1193;25057;-62
2022/09/12 04:49:38;;;;;;;;;4.25;4.25;;;27.90;100456.16;;;;117100;1193;25428;-65
2022/09/12 04:52:07;;;;;;;;;4.75;4.75;;;27.88;100464.85;;;;117039;1193;25693;-61
2022/09/12 04:54:36;;;;;;;;;8.67;6.33;;;27.88;100467.73;;;;117088;1193;25333;-61
2022/09/12 04:57:05;;;;;;;;;6.25;6.25;;;27.88;100473.37;;;;117159;1191;25517;-61
2022/09/12 04:59:33;;;;;;;;;7.50;5.00;;;27.88;100477.83;;;;117146;1191;25704;-61
2022/09/12 05:02:02;;;;;;;;;7.50;5.00;;;27.88;100481.46;;;;117184;1190;25017;-61
2022/09/12 05:04:30;;;;;;;;;3.25;3.25;;;27.88;100482.02;;;;117120;1193;24739;-62
2022/09/12 05:06:59;;;;;;;;;6.75;5.25;;;27.88;100481.81;;;;117142;1191;25642;-62
2022/09/12 05:09:28;;;;;;;;;4.75;4.75;;;27.87;100484.61;;;;117064;1191;24679;-62
2022/09/12 05:11:56;;;;;;;;;6.00;5.00;;;27.87;100487.63;;;;117161;1192;24792;-62
2022/09/12 05:14:33;;;;;;;;;6.00;5.00;;;27.86;100485.17;;;;117197;1190;25371;-63
2022/09/12 05:17:04;;;;;;;;;9.25;3.50;;;27.89;100482.30;;;;117069;1193;24891;-62
2022/09/12 05:19:33;;;;;;;;;2.75;2.75;;;27.89;100480.02;;;;117383;1190;25283;-61
2022/09/12 05:22:03;;;;;;;;;6.25;5.00;;;27.89;100480.98;;;;117165;1191;25413;-61
2022/09/12 05:24:32;;;;;;;;;3.67;3.00;;;27.88;100482.73;;;;117173;1191;25749;-61
2022/09/12 05:27:03;;;;;;;;;6.25;6.25;;;27.87;100480.83;;;;117187;1192;25009;-61
2022/09/12 05:29:32;;;;;;;;;5.25;5.25;;;27.87;100478.08;;;;117121;1191;24893;-62
2022/09/12 05:32:02;;;;;;;;;4.75;4.00;;;27.88;100476.31;;;;117112;1191;25615;-61
2022/09/12 05:34:30;;;;;;;;;6.75;6.75;;;27.87;100473.52;;;;117414;1189;25677;-61
2022/09/12 05:36:59;;;;;;;;;6.00;3.67;;;27.88;100472.27;;;;117104;1192;25363;-61
2022/09/12 05:39:27;;;;;;;;;7.00;4.67;;;27.87;100469.42;;;;117390;1191;25115;-61
2022/09/12 05:41:55;;;;;;;;;6.00;6.00;;;27.86;100467.22;;;;117085;1190;25131;-62
2022/09/12 05:44:24;;;;;;;;;6.00;5.25;;;27.87;100464.48;;;;117110;1191;25194;-61
2022/09/12 05:46:52;;;;;;;;;7.33;7.33;;;27.86;100464.46;;;;117166;1191;25709;-61
2022/09/12 05:49:21;;;;;;;;;6.75;3.75;;;27.86;100467.14;;;;117068;1192;25347;-61
2022/09/12 05:51:50;;;;;;;;;9.25;6.75;;;27.86;100469.59;;;;117069;1192;24919;-62
2022/09/12 05:54:19;;;;;;;;;7.00;5.67;;;27.85;100466.02;;;;117174;1191;25643;-61
2022/09/12 05:56:48;;;;;;;;;5.50;4.00;;;27.86;100463.62;;;;117046;1193;25384;-62
2022/09/12 05:59:20;;;;;;;;;5.00;5.00;;;27.86;100461.08;;;;117155;1192;25487;-61
2022/09/12 06:01:49;;;;;;;;;7.00;7.00;;;27.86;100455.59;;;;117049;1193;25074;-61
2022/09/12 06:04:17;;;;;;;;;5.33;4.00;;;27.88;100451.23;;;;117014;1192;24792;-61
2022/09/12 06:06:46;;;;;;;;;7.25;6.25;;;27.87;100445.58;;;;117055;1193;25518;-61
2022/09/12 06:09:15;;;;;;;;;4.00;4.00;;;27.86;100443.23;;;;117026;1192;25677;-61
2022/09/12 06:11:45;;;;;;;;;12.75;6.75;;;27.87;100445.63;;;;117153;1193;25757;-61
2022/09/12 06:14:16;;;;;;;;;5.75;4.75;;;27.87;100446.02;;;;117015;1193;24861;-61
2022/09/12 06:16:46;;;;;;;;;4.25;4.25;;;27.88;100445.38;;;;117162;1191;25525;-61
2022/09/12 06:19:17;;;;;;;;;4.25;3.25;;;27.88;100440.25;;;;117124;1193;25300;-61
2022/09/12 06:21:48;;;;;;;;;7.00;4.00;;;27.89;100436.19;;;;117121;1192;25717;-61
2022/09/12 06:24:17;;;;;;;;;4.50;3.25;;;27.90;100441.44;;;;117138;1193;25384;-62
2022/09/12 06:26:47;;;;;;;;;5.75;5.75;;;27.91;100440.40;;;;117049;1193;25516;-61
2022/09/12 06:29:15;;;;;;;;;7.25;5.75;;;27.92;100445.31;;;;117036;1193;24984;-61
2022/09/12 06:31:44;;;;;;;;;7.00;5.00;;;27.93;100445.71;;;;117079;1192;25019;-60
2022/09/12 06:34:14;;;;;;;;;4.00;4.00;;;27.93;100440.30;;;;117048;1192;25425;-61
2022/09/12 06:36:46;;;;;;;;;7.25;5.00;;;27.93;100441.21;;;;117126;1191;25783;-61
2022/09/12 06:39:20;;;;;;;;;5.00;5.00;;;27.94;100445.17;;;;117136;1192;25329;-60
2022/09/12 06:41:50;;;;;;;;;9.00;6.00;;;27.95;100445.95;;;;117108;1192;25466;-61
2022/09/12 06:44:21;;;;;;;;;5.00;5.00;;;27.95;100449.15;;;;117094;1191;25317;-61
2022/09/12 06:46:49;;;;;;;;;4.25;4.25;;;27.95;100447.53;;;;117140;1193;24979;-61
2022/09/12 06:49:18;;;;;;;;;3.67;2.00;;;27.95;100451.13;;;;116995;1193;25574;-61
2022/09/12 06:51:46;;;;;;;;;5.25;4.25;;;27.95;100452.85;;;;117020;1193;25210;-61
2022/09/12 06:54:15;;;;;;;;;6.75;5.75;;;27.94;100453.23;;;;117028;1192;24898;-62
2022/09/12 06:56:44;;;;;;;;;7.33;4.67;;;27.93;100456.01;;;;117154;1193;25797;-61
2022/09/12 06:59:12;;;;;;;;;5.00;4.50;;;27.94;100457.03;;;;117040;1193;25487;-62
2022/09/12 07:01:41;;;;;;;;;4.67;4.00;;;27.94;100458.31;;;;117044;1193;25646;-62
2022/09/12 07:04:10;;;;;;;;;7.75;7.50;;;27.94;100459.05;;;;117051;1192;25263;-61
2022/09/12 07:06:40;;;;;;;;;3.75;3.75;;;27.93;100462.59;;;;117022;1193;24991;-61
2022/09/12 07:09:12;;;;;;;;;5.00;3.33;;;27.91;100461.27;;;;117155;1193;25329;-61
2022/09/12 07:11:41;;;;;;;;;5.67;5.67;;;27.93;100458.82;;;;117100;1193;25345;-61
2022/09/12 07:14:12;;;;;;;;;6.33;5.00;;;27.93;100461.23;;;;117088;1193;25240;-61
2022/09/12 07:16:41;;;;;;;;;5.75;5.75;;;27.95;100462.30;;;;117162;1191;24911;-60
2022/09/12 07:19:10;;;;;;;;;3.75;3.75;;;27.94;100459.07;;;;117056;1193;26493;-61
2022/09/12 07:21:39;;;;;;;;;2.33;2.00;;;27.95;100456.76;;;;117123;1193;25286;-62
2022/09/12 07:24:09;;;;;;;;;5.00;4.00;;;27.96;100455.19;;;;117065;1193;24731;-62
2022/09/12 07:26:39;;;;;;;;;5.00;5.00;;;27.99;100457.55;;;;117139;1193;25187;-61
2022/09/12 07:29:14;;;;;;;;;4.00;4.00;;;28.02;100453.95;;;;117144;1193;25485;-61
2022/09/12 07:32:04;;;;;;;;;8.00;4.00;;;28.09;100455.71;;;;117132;1192;25639;-61
2022/09/12 07:34:34;;;;;;;;;7.00;7.00;;;28.13;100457.67;;;;117158;1193;25014;-61
2022/09/12 07:37:03;;;;;;;;;25.50;23.75;;;28.14;100459.05;;;;117096;1193;25519;-62
2022/09/12 07:39:32;;;;;;;;;14.75;13.25;;;28.14;100459.93;;;;117021;1192;25576;-64
2022/09/12 07:42:00;;;;;;;;;18.25;16.25;;;28.18;100466.90;;;;117024;1193;24932;-64
2022/09/12 07:44:30;;;;;;;;;30.33;24.00;;;28.19;100470.55;;;;117037;1193;24824;-64
2022/09/12 07:46:59;;;;;;;;;27.00;20.75;;;28.21;100469.07;;;;117132;1193;25384;-63
2022/09/12 07:49:29;;;;;;;;;27.25;27.25;;;28.25;100468.21;;;;117147;1191;25646;-63
2022/09/12 07:51:57;;;;;;;;;23.67;21.33;;;28.25;100466.63;;;;117024;1192;24752;-62
2022/09/12 07:54:26;;;;;;;;;21.00;17.00;;;28.25;100472.48;;;;117024;1193;25439;-63
2022/09/12 07:56:55;;;;;;;;;22.33;17.33;;;28.25;100470.36;;;;117121;1190;25284;-63
2022/09/12 07:59:23;;;;;;;;;22.33;20.00;;;28.27;100471.88;;;;117089;1192;25425;-61
2022/09/12 08:02:14;;;;;;;;;19.33;16.67;;;28.31;100469.36;;;;117117;1191;25594;-63
2022/09/12 08:04:46;;;;;;;;;16.00;15.50;;;28.34;100469.58;;;;117162;1191;25412;-64
2022/09/12 08:07:16;;;;;;;;;18.00;14.50;;;28.31;100465.30;;;;117149;1191;25600;-63
2022/09/12 08:09:45;;;;;;;;;15.75;11.25;;;28.30;100463.76;;;;117161;1192;24738;-62
2022/09/12 08:12:16;;;;;;;;;16.33;13.67;;;28.31;100464.56;;;;117117;1192;25442;-62
2022/09/12 08:14:45;;;;;;;;;13.00;10.50;;;28.33;100465.98;;;;117374;1190;25119;-62
2022/09/12 08:17:13;;;;;;;;;10.75;10.00;;;28.34;100464.82;;;;117170;1191;25318;-62
2022/09/12 08:19:42;;;;;;;;;14.75;10.75;;;28.36;100463.95;;;;117184;1191;25603;-65
2022/09/12 08:22:11;;;;;;;;;14.00;11.75;;;28.37;100461.54;;;;117131;1192;25213;-66
2022/09/12 08:24:39;;;;;;;;;11.25;10.50;;;28.41;100460.58;;;;117160;1192;25817;-64
2022/09/12 08:27:08;;;;;;;;;13.75;9.00;;;28.39;100458.98;;;;117131;1189;25367;-63
2022/09/12 08:29:36;;;;;;;;;11.75;9.75;;;28.39;100457.19;;;;117070;1193;25498;-62
2022/09/12 08:32:05;;;;;;;;;10.00;8.50;;;28.41;100456.36;;;;117133;1191;25076;-65
2022/09/12 08:34:33;;;;;;;;;14.00;11.50;;;28.43;100452.63;;;;117116;1191;25785;-65
2022/09/12 08:37:02;;;;;;;;;11.75;9.25;;;28.46;100449.39;;;;117121;1192;24752;-64
2022/09/12 08:39:32;;;;;;;;;14.50;11.50;;;28.46;100444.82;;;;117055;1193;25244;-64
2022/09/12 08:42:02;;;;;;;;;12.25;9.75;;;28.49;100443.99;;;;117054;1193;24959;-67
2022/09/12 08:44:52;;;;;;;;;9.00;9.00;;;28.49;100440.92;;;;117156;1191;25147;-68
2022/09/12 08:47:39;;;;;;;;;9.33;9.33;;;28.51;100436.81;;;;117150;1189;25085;-69
2022/09/12 08:50:11;;;;;;;;;10.50;9.50;;;28.50;100434.16;;;;117186;1191;24840;-68
2022/09/12 08:53:04;;;;;;;;;8.50;8.50;;;28.49;100434.73;;;;117100;1193;25624;-70
2022/09/12 08:55:36;;;;;;;;;9.67;7.67;;;28.52;100435.19;;;;117477;1189;25569;-68
2022/09/12 08:58:12;;;;;;;;;7.50;6.75;;;28.51;100433.84;;;;116927;1191;25321;-67
2022/09/12 09:01:06;;;;;;;;;8.25;6.50;;;28.52;100432.33;;;;117328;1190;24847;-67
2022/09/12 09:03:51;;;;;;;;;9.00;7.25;;;28.56;100429.30;;;;117158;1192;25366;-66
2022/09/12 09:06:38;;;;;;;;;10.00;8.25;;;28.59;100425.57;;;;117152;1191;25675;-63
2022/09/12 09:09:25;;;;;;;;;6.50;5.50;;;28.60;100420.63;;;;117123;1192;25494;-62
2022/09/12 09:12:23;;;;;;;;;7.67;7.33;;;28.58;100418.20;;;;117169;1191;24749;-62
2022/09/12 09:15:04;;;;;;;;;8.75;7.00;;;28.59;100410.39;;;;117129;1191;25074;-63
2022/09/12 09:17:44;;;;;;;;;6.00;5.75;;;28.60;100409.55;;;;117206;1192;25180;-64
2022/09/12 09:20:27;;;;;;;;;14.00;8.00;;;28.60;100410.02;;;;117069;1193;25334;-65
2022/09/12 09:23:11;;;;;;;;;7.00;7.00;;;28.60;100410.81;;;;117120;1192;25520;-64
2022/09/12 09:25:44;;;;;;;;;7.75;5.00;;;28.64;100407.85;;;;117004;1192;24961;-65
2022/09/12 09:28:15;;;;;;;;;8.00;8.00;;;28.63;100404.19;;;;117130;1192;25270;-65
2022/09/12 09:30:44;;;;;;;;;5.50;5.50;;;28.62;100405.65;;;;117065;1191;25693;-66
2022/09/12 09:33:21;;;;;;;;;7.00;5.25;;;28.61;100402.05;;;;116997;1193;25117;-65
2022/09/12 09:36:07;;;;;;;;;5.75;5.75;;;28.62;100396.98;;;;117093;1191;24715;-63
2022/09/12 09:38:47;;;;;;;;;5.50;5.50;;;28.63;100393.30;;;;117113;1192;25159;-62
2022/09/12 09:41:16;;;;;;;;;6.00;4.00;;;28.62;100390.17;;;;117103;1193;25263;-63
2022/09/12 09:43:45;;;;;;;;;7.00;6.25;;;28.62;100391.92;;;;117206;1192;25246;-63
2022/09/12 09:46:14;;;;;;;;;8.25;6.75;;;28.60;100391.39;;;;117172;1192;25022;-63
2022/09/12 09:48:48;;;;;;;;;5.00;5.00;;;28.60;100392.98;;;;117140;1191;24920;-63
2022/09/12 09:51:23;;;;;;;;;4.25;4.25;;;28.60;100392.80;;;;117395;1191;24862;-63
2022/09/12 09:53:55;;;;;;;;;8.25;7.75;;;28.59;100395.15;;;;117175;1192;25502;-64
2022/09/12 09:56:38;;;;;;;;;5.67;5.67;;;28.60;100396.98;;;;117059;1193;25157;-62
2022/09/12 09:59:23;;;;;;;;;7.67;5.00;;;28.59;100392.26;;;;117129;1193;24973;-63
2022/09/12 10:01:55;;;;;;;;;5.75;4.50;;;28.58;100391.39;;;;117013;1192;25512;-63
2022/09/12 10:04:26;;;;;;;;;5.33;5.33;;;28.59;100389.10;;;;117050;1191;25617;-63
2022/09/12 10:07:00;;;;;;;;;3.50;3.50;;;28.62;100383.96;;;;117139;1193;25666;-62
2022/09/12 10:09:34;;;;;;;;;4.50;4.50;;;28.60;100385.54;;;;117012;1193;24976;-62
2022/09/12 10:12:21;;;;;;;;;5.00;5.00;;;28.60;100388.75;;;;117020;1193;25438;-63
2022/09/12 10:15:01;;;;;;;;;6.25;5.75;;;28.59;100394.96;;;;117043;1193;25252;-62
2022/09/12 10:17:42;;;;;;;;;5.50;4.50;;;28.57;100390.55;;;;117093;1193;24864;-62
2022/09/12 10:20:38;;;;;;;;;7.00;6.00;;;28.51;100393.21;;;;117057;1193;24916;-65
2022/09/12 10:23:27;;;;;;;;;10.25;5.75;;;28.53;100391.23;;;;117116;1192;24916;-64
2022/09/12 10:26:00;;;;;;;;;7.00;7.00;;;28.51;100388.54;;;;117123;1193;25045;-64
2022/09/12 10:28:36;;;;;;;;;9.50;6.25;;;28.50;100387.05;;;;117113;1192;25675;-64
2022/09/12 10:31:06;;;;;;;;;11.33;8.67;;;28.48;100384.98;;;;117068;1193;25312;-63
2022/09/12 10:33:41;;;;;;;;;8.00;6.00;;;28.49;100385.89;;;;117087;1193;25165;-63
2022/09/12 10:36:10;;;;;;;;;8.25;3.75;;;28.48;100384.77;;;;117082;1192;24929;-66
2022/09/12 10:38:38;;;;;;;;;11.25;7.75;;;28.46;100380.75;;;;117062;1193;25666;-59
2022/09/12 10:41:09;;;;;;;;;16.25;9.75;;;28.45;100379.61;;;;117042;1193;24994;-61
2022/09/12 10:43:41;;;;;;;;;9.25;7.50;;;28.40;100378.91;;;;117027;1193;25629;-64
2022/09/12 10:46:18;;;;;;;;;11.67;7.67;;;28.39;100381.48;;;;117106;1192;25600;-62
2022/09/12 10:48:51;;;;;;;;;9.25;5.25;;;28.33;100389.52;;;;117105;1193;24994;-61
2022/09/12 10:51:23;;;;;;;;;5.75;5.75;;;28.36;100386.45;;;;117093;1193;25163;-64
2022/09/12 10:53:59;;;;;;;;;8.33;6.67;;;28.36;100388.48;;;;117137;1193;25361;-63
2022/09/12 10:56:34;;;;;;;;;7.00;4.00;;;28.31;100387.20;;;;117141;1193;25286;-65
2022/09/12 10:59:44;;;;;;;;;5.25;5.00;;;28.22;100385.25;;;;117114;1192;25058;-66
2022/09/12 11:02:29;;;;;;;;;9.00;6.25;;;28.20;100382.30;;;;117077;1193;25437;-69
2022/09/12 11:05:07;;;;;;;;;5.00;4.75;;;28.17;100377.71;;;;117030;1193;25291;-68
2022/09/12 11:07:47;;;;;;;;;5.33;4.67;;;28.13;100370.38;;;;117111;1193;24919;-68
2022/09/12 11:10:19;;;;;;;;;5.75;5.75;;;28.11;100366.23;;;;117085;1193;25331;-68
2022/09/12 11:12:55;;;;;;;;;6.00;6.00;;;28.08;100366.65;;;;117090;1193;25073;-68
2022/09/12 11:16:01;;;;;;;;;7.00;4.25;;;28.07;100367.76;;;;117114;1193;25620;-67
2022/09/12 11:18:32;;;;;;;;;6.25;4.50;;;28.07;100367.63;;;;116998;1193;24941;-71
2022/09/12 11:21:08;;;;;;;;;5.00;5.00;;;28.03;100365.76;;;;117116;1193;25715;-72
2022/09/12 11:24:08;;;;;;;;;5.00;5.00;;;28.03;100362.83;;;;117080;1193;25279;-71
2022/09/12 11:27:14;;;;;;;;;4.75;4.75;;;28.07;100359.22;;;;117059;1193;25225;-71
2022/09/12 11:29:58;;;;;;;;;5.50;4.75;;;28.06;100360.31;;;;117103;1193;25731;-70
2022/09/12 11:33:04;;;;;;;;;5.33;5.00;;;28.05;100361.51;;;;117054;1193;24744;-72
2022/09/12 11:35:48;;;;;;;;;7.00;4.33;;;28.06;100362.06;;;;117167;1192;25484;-72
2022/09/12 11:38:50;;;;;;;;;4.00;4.00;;;28.07;100362.05;;;;117040;1193;25463;-72
2022/09/12 11:41:27;;;;;;;;;3.50;3.50;;;28.12;100362.77;;;;117031;1193;25123;-71
2022/09/12 11:44:14;;;;;;;;;6.25;5.75;;;28.09;100361.65;;;;117150;1191;25178;-71
2022/09/12 11:46:44;;;;;;;;;6.25;5.00;;;28.08;100363.50;;;;117035;1193;25777;-70
2022/09/12 11:49:35;;;;;;;;;6.25;4.00;;;28.07;100362.09;;;;117042;1192;25491;-71
2022/09/12 11:52:21;;;;;;;;;4.75;4.00;;;28.08;100358.16;;;;117041;1194;25697;-70
2022/09/12 11:55:05;;;;;;;;;4.50;4.50;;;28.09;100355.05;;;;117111;1193;25546;-70
2022/09/12 11:57:53;;;;;;;;;7.00;5.33;;;28.06;100357.30;;;;117167;1191;25050;-70
2022/09/12 12:00:33;;;;;;;;;3.75;3.75;;;28.07;100364.72;;;;117127;1192;24947;-71
2022/09/12 12:03:30;;;;;;;;;10.00;4.00;;;28.08;100368.52;;;;117032;1192;24960;-71
2022/09/12 12:06:13;;;;;;;;;6.00;4.25;;;28.11;100375.69;;;;117163;1191;24878;-71
2022/09/12 12:08:43;;;;;;;;;5.25;5.00;;;28.12;100380.70;;;;117401;1189;25707;-70
2022/09/12 12:11:15;;;;;;;;;5.00;5.00;;;28.09;100390.69;;;;117109;1191;25760;-70
2022/09/12 12:14:04;;;;;;;;;1.25;1.25;;;28.07;100403.82;;;;117168;1191;25099;-69
2022/09/12 12:16:37;;;;;;;;;5.25;5.00;;;28.07;100407.38;;;;117124;1191;25012;-71
2022/09/12 12:19:14;;;;;;;;;4.25;3.50;;;28.06;100411.80;;;;117193;1191;25687;-69
2022/09/12 12:21:45;;;;;;;;;7.25;4.50;;;28.05;100405.15;;;;117130;1192;25544;-71
2022/09/12 12:24:17;;;;;;;;;5.25;2.75;;;28.04;100399.84;;;;117168;1192;25270;-69
2022/09/12 12:26:59;;;;;;;;;4.33;4.33;;;28.03;100404.13;;;;117122;1192;25008;-69
2022/09/12 12:29:31;;;;;;;;;4.25;4.25;;;28.01;100401.31;;;;117151;1191;25651;-70
2022/09/12 12:32:02;;;;;;;;;4.75;3.75;;;28.00;100401.14;;;;117361;1191;25572;-69